Time;durP1;ratioP1;P1;durP2;ratioP2;P2;SDS_P1;SDS_P2;PMS_P1;PMS_P2;Temp;Humidity;BMP_temperature;BMP_pressure;BME280_temperature;BME280_humidity;BME280_pressure;Samples;Min_cycle;Max_cycle;Signal;HPM_P1;HPM_P2
2022/07/05 00:01:16;;;;;;;1.85;0.98;;;22.40;56.40;;;;;;10370528;28;20037;-57
2022/07/05 00:06:17;;;;;;;2.22;1.05;;;22.40;56.40;;;;;;10383772;28;20084;-58
2022/07/05 00:11:17;;;;;;;1.77;1.38;;;22.40;56.50;;;;;;10403373;28;20041;-57
2022/07/05 00:16:18;;;;;;;1.25;0.90;;;22.40;56.40;;;;;;10371635;28;20065;-57
2022/07/05 00:21:19;;;;;;;1.38;1.10;;;22.40;56.30;;;;;;10382675;28;20065;-55
2022/07/05 00:26:20;;;;;;;1.90;1.38;;;22.40;56.30;;;;;;10369872;28;20029;-57
2022/07/05 00:31:20;;;;;;;3.58;1.40;;;22.40;56.20;;;;;;10384127;28;20033;-60
2022/07/05 00:36:21;;;;;;;2.85;1.40;;;22.40;56.20;;;;;;10393717;28;20048;-57
2022/07/05 00:41:22;;;;;;;2.65;1.27;;;22.30;56.20;;;;;;10409339;28;20044;-57
2022/07/05 00:46:23;;;;;;;2.55;1.20;;;22.40;56.20;;;;;;10396526;28;20036;-57
2022/07/05 00:51:24;;;;;;;1.70;1.23;;;22.30;56.20;;;;;;10418632;28;20040;-58
2022/07/05 00:56:26;;;;;;;1.75;1.05;;;22.30;56.20;;;;;;10410485;28;20033;-56
2022/07/05 01:01:28;;;;;;;3.10;1.58;;;22.30;56.10;;;;;;10390187;28;20084;-56
2022/07/05 01:06:28;;;;;;;2.15;1.33;;;22.40;56.10;;;;;;10369464;28;20028;-57
2022/07/05 01:11:30;;;;;;;1.88;1.20;;;22.30;56.60;;;;;;10369466;28;20125;-57
2022/07/05 01:16:31;;;;;;;2.22;1.38;;;22.30;56.00;;;;;;10368916;28;20061;-55
2022/07/05 01:21:37;;;;;;;1.25;1.02;;;22.30;56.00;;;;;;10379515;28;20041;-57
2022/07/05 01:26:39;;;;;;;1.77;1.08;;;22.30;56.00;;;;;;10395243;28;20025;-56
2022/07/05 01:31:41;;;;;;;1.65;1.35;;;22.30;55.90;;;;;;10398623;28;20452;-57
2022/07/05 01:36:42;;;;;;;2.40;1.80;;;22.30;55.90;;;;;;10394338;28;20042;-58
2022/07/05 01:41:43;;;;;;;1.80;1.45;;;22.30;55.90;;;;;;10375686;28;20038;-56
2022/07/05 01:46:44;;;;;;;2.45;1.25;;;22.20;55.90;;;;;;10368033;28;20026;-57
2022/07/05 01:51:53;;;;;;;1.85;1.17;;;22.30;55.90;;;;;;10387746;28;20041;-57
2022/07/05 01:56:54;;;;;;;1.95;1.45;;;22.20;55.80;;;;;;10351086;28;20461;-58
2022/07/05 02:01:54;;;;;;;2.35;1.30;;;22.20;55.80;;;;;;10376319;28;20029;-57
2022/07/05 02:06:56;;;;;;;1.80;1.25;;;22.20;55.70;;;;;;10407209;28;20460;-57
2022/07/05 02:11:57;;;;;;;2.65;1.17;;;22.20;55.60;;;;;;10407270;28;20061;-58
2022/07/05 02:16:57;;;;;;;2.38;1.20;;;22.20;55.60;;;;;;10393632;28;20025;-58
2022/07/05 02:21:58;;;;;;;2.33;1.60;;;22.20;55.70;;;;;;10406307;28;20480;-56
2022/07/05 02:26:59;;;;;;;2.58;1.33;;;22.20;55.50;;;;;;10385340;28;20476;-57
2022/07/05 02:32:00;;;;;;;1.60;1.30;;;22.20;55.50;;;;;;10396866;28;20037;-57
2022/07/05 02:37:00;;;;;;;1.48;1.20;;;22.10;55.40;;;;;;10407497;28;20049;-58
2022/07/05 02:42:01;;;;;;;1.60;1.10;;;22.10;55.50;;;;;;10385837;28;20081;-57
2022/07/05 02:47:02;;;;;;;2.78;1.50;;;22.20;55.60;;;;;;10374907;28;20080;-58
2022/07/05 02:52:03;;;;;;;1.98;1.10;;;22.10;55.40;;;;;;10414717;28;20037;-56
2022/07/05 02:57:04;;;;;;;1.90;1.30;;;22.10;55.40;;;;;;10400702;28;20025;-56
2022/07/05 03:02:05;;;;;;;1.98;1.05;;;22.10;55.50;;;;;;10375705;28;20488;-57
2022/07/05 03:07:05;;;;;;;2.13;1.35;;;22.10;55.50;;;;;;10398794;28;20022;-56
2022/07/05 03:12:07;;;;;;;1.60;1.20;;;22.10;55.40;;;;;;10372463;28;20036;-57
2022/07/05 03:17:08;;;;;;;3.90;1.40;;;22.10;55.40;;;;;;10373442;28;20461;-57
2022/07/05 03:22:08;;;;;;;1.80;1.20;;;22.10;55.50;;;;;;10371307;28;20140;-57
2022/07/05 03:27:09;;;;;;;1.85;1.27;;;22.00;55.40;;;;;;10351653;28;20026;-57
2022/07/05 03:32:10;;;;;;;2.88;1.60;;;22.00;55.40;;;;;;10382861;28;20037;-56
2022/07/05 03:37:10;;;;;;;2.28;1.42;;;22.10;55.40;;;;;;10382794;28;20042;-57
2022/07/05 03:42:11;;;;;;;2.25;1.38;;;22.00;55.40;;;;;;10389570;28;20033;-58
2022/07/05 03:47:14;;;;;;;1.95;1.33;;;22.00;55.60;;;;;;10397748;28;20029;-57
2022/07/05 03:52:15;;;;;;;1.60;1.30;;;22.00;55.50;;;;;;10418509;28;20056;-57
2022/07/05 03:57:15;;;;;;;1.70;1.10;;;22.00;55.60;;;;;;10383811;28;20040;-57
2022/07/05 04:02:16;;;;;;;1.88;1.20;;;22.00;55.60;;;;;;10409570;28;20516;-57
2022/07/05 04:07:17;;;;;;;2.55;1.70;;;22.00;55.70;;;;;;10384969;28;20795;-57
2022/07/05 04:12:18;;;;;;;1.50;1.08;;;22.00;55.70;;;;;;10392927;28;20038;-57
2022/07/05 04:17:18;;;;;;;3.20;1.20;;;22.00;55.70;;;;;;10410712;28;20660;-58
2022/07/05 04:22:19;;;;;;;1.20;0.88;;;22.00;55.70;;;;;;10370028;28;20125;-57
2022/07/05 04:27:20;;;;;;;2.05;1.58;;;22.00;55.80;;;;;;10369322;28;20057;-58
2022/07/05 04:32:20;;;;;;;2.53;1.30;;;22.00;55.80;;;;;;10382703;28;20106;-57
2022/07/05 04:37:21;;;;;;;2.33;1.25;;;22.00;55.80;;;;;;10378966;28;20056;-57
2022/07/05 04:42:22;;;;;;;3.55;1.50;;;22.00;55.90;;;;;;10389305;28;20038;-57
2022/07/05 04:47:23;;;;;;;3.00;1.10;;;22.00;55.90;;;;;;10377907;28;20166;-56
2022/07/05 04:52:24;;;;;;;4.43;1.20;;;21.90;56.40;;;;;;10404701;28;20033;-56
2022/07/05 04:57:25;;;;;;;2.45;1.20;;;21.90;56.80;;;;;;10395150;28;20392;-57
2022/07/05 05:02:26;;;;;;;2.22;1.13;;;22.00;57.00;;;;;;10374213;28;20037;-56
2022/07/05 05:07:27;;;;;;;3.38;1.38;;;22.10;57.60;;;;;;10367629;28;20042;-56
2022/07/05 05:12:28;;;;;;;2.22;1.20;;;22.10;58.20;;;;;;10380553;28;20033;-55
2022/07/05 05:17:36;;;;;;;5.30;1.60;;;22.10;58.20;;;;;;10381282;28;20128;-56
2022/07/05 05:22:37;;;;;;;7.67;1.80;;;22.10;58.30;;;;;;10367144;28;20038;-55
2022/07/05 05:27:49;;;;;;;5.78;1.70;;;22.10;59.20;;;;;;10373574;28;20108;-55
2022/07/05 05:32:49;;;;;;;17.10;2.53;;;22.10;58.90;;;;;;10400120;28;20487;-56
2022/07/05 05:37:55;;;;;;;9.70;2.33;;;22.10;59.10;;;;;;10382129;28;20055;-56
2022/07/05 05:42:56;;;;;;;4.45;1.92;;;22.10;58.80;;;;;;10385055;28;20033;-56
2022/07/05 05:47:59;;;;;;;10.75;2.00;;;22.10;58.90;;;;;;10384119;28;20034;-49
2022/07/05 05:53:00;;;;;;;7.38;2.58;;;22.10;58.90;;;;;;10379094;28;20052;-53
2022/07/05 05:58:16;;;;;;;5.80;2.25;;;22.10;58.90;;;;;;10385718;28;20034;-55
2022/07/05 06:03:19;;;;;;;10.82;2.25;;;22.10;58.80;;;;;;10377819;28;20026;-54
2022/07/05 06:08:21;;;;;;;11.68;2.50;;;22.10;58.90;;;;;;10366255;28;20037;-50
2022/07/05 06:13:22;;;;;;;11.63;3.45;;;22.10;59.20;;;;;;10367014;28;20397;-54
2022/07/05 06:18:22;;;;;;;9.40;3.03;;;22.10;60.30;;;;;;10388333;28;20033;-54
2022/07/05 06:23:23;;;;;;;6.30;2.22;;;22.10;59.90;;;;;;10413033;28;20047;-55
2022/07/05 06:28:24;;;;;;;6.85;2.58;;;22.10;59.50;;;;;;10404258;28;20041;-53
2022/07/05 06:33:24;;;;;;;5.80;2.90;;;22.10;59.30;;;;;;10402537;28;20036;-56
2022/07/05 06:38:25;;;;;;;10.45;3.22;;;22.10;59.40;;;;;;10385789;28;20045;-55
2022/07/05 06:43:26;;;;;;;6.30;2.70;;;22.10;59.90;;;;;;10390558;28;20032;-53
2022/07/05 06:48:27;;;;;;;4.93;2.05;;;22.10;59.80;;;;;;10400560;28;20111;-56
2022/07/05 06:53:27;;;;;;;5.13;2.42;;;22.10;59.70;;;;;;10396901;28;20465;-53
2022/07/05 06:58:28;;;;;;;9.02;3.22;;;22.10;59.60;;;;;;10390383;28;20033;-55
2022/07/05 07:03:29;;;;;;;5.60;3.00;;;22.10;59.90;;;;;;10388794;28;20091;-53
2022/07/05 07:13:49;;;;;;;5.38;3.15;;;22.10;60.00;;;;;;10401477;28;20120;-55
2022/07/05 07:18:50;;;;;;;5.20;3.35;;;22.10;59.50;;;;;;10378094;28;20033;-55
2022/07/05 07:23:50;;;;;;;5.82;3.03;;;22.10;59.40;;;;;;10406993;28;20037;-56
2022/07/05 07:28:51;;;;;;;6.72;3.60;;;22.10;59.30;;;;;;10385899;28;20029;-56
2022/07/05 07:33:52;;;;;;;7.75;4.35;;;22.10;59.40;;;;;;10392842;28;20038;-54
2022/07/05 07:38:53;;;;;;;6.68;3.53;;;22.10;60.50;;;;;;10394892;28;20095;-54
2022/07/05 07:43:53;;;;;;;9.02;4.65;;;22.10;60.50;;;;;;10396336;28;20037;-55
2022/07/05 07:48:54;;;;;;;7.50;3.28;;;22.10;60.70;;;;;;10413634;28;20124;-55
2022/07/05 07:53:55;;;;;;;10.57;4.78;;;22.10;60.70;;;;;;10397582;28;20022;-54
2022/07/05 07:58:56;;;;;;;5.82;3.40;;;22.10;60.60;;;;;;10398861;28;20036;-55
2022/07/05 08:03:57;;;;;;;7.45;3.63;;;22.10;59.80;;;;;;10388327;28;20057;-54
2022/07/05 08:08:57;;;;;;;5.78;3.53;;;22.10;61.30;;;;;;10396620;28;20179;-57
2022/07/05 08:13:58;;;;;;;6.82;3.75;;;22.10;60.30;;;;;;10391551;28;20108;-53
2022/07/05 08:24:18;;;;;;;8.20;4.05;;;22.10;60.40;;;;;;10370829;28;20029;-54
2022/07/05 08:29:19;;;;;;;8.98;3.90;;;22.10;60.30;;;;;;10374844;28;20034;-49
2022/07/05 08:34:20;;;;;;;5.65;3.53;;;22.10;60.40;;;;;;10399970;28;20042;-46
2022/07/05 08:39:21;;;;;;;7.25;3.92;;;22.10;60.30;;;;;;10370209;28;20034;-49
2022/07/05 08:44:22;;;;;;;6.72;3.47;;;22.10;60.30;;;;;;10370296;28;20034;-50
2022/07/05 08:49:30;;;;;;;8.63;3.38;;;22.10;60.40;;;;;;10381352;28;20043;-53
2022/07/05 08:54:32;;;;;;;5.93;3.50;;;22.20;60.40;;;;;;10395015;28;20037;-50
2022/07/05 08:59:32;;;;;;;5.43;3.28;;;22.20;60.30;;;;;;10385652;28;20069;-51
2022/07/05 09:04:40;;;;;;;9.65;3.85;;;22.20;60.30;;;;;;10394747;28;20030;-52
2022/07/05 09:09:44;;;;;;;11.23;3.67;;;22.20;59.50;;;;;;10391115;28;20080;-51
2022/07/05 09:14:45;;;;;;;7.20;3.55;;;22.20;60.40;;;;;;10389400;28;20571;-50
2022/07/05 09:20:26;;;;;;;7.28;3.53;;;22.20;60.60;;;;;;10378285;28;20042;-53
2022/07/05 09:25:32;;;;;;;6.97;3.40;;;22.20;59.70;;;;;;10367442;28;20041;-53
2022/07/05 09:30:34;;;;;;;5.47;3.38;;;22.20;60.80;;;;;;10401048;28;20139;-53
2022/07/05 09:35:40;;;;;;;5.65;4.13;;;22.10;60.90;;;;;;10390667;28;20397;-54
2022/07/05 09:40:53;;;;;;;5.97;3.72;;;22.10;60.80;;;;;;10387611;28;20340;-52
2022/07/05 09:46:04;;;;;;;5.70;3.50;;;22.10;60.80;;;;;;10377051;28;20065;-52
2022/07/05 09:51:22;;;;;;;6.28;3.28;;;22.20;60.70;;;;;;10396739;28;20105;-53
2022/07/05 09:56:26;;;;;;;5.65;3.72;;;22.10;60.80;;;;;;10367401;28;20041;-52
2022/07/05 10:01:30;;;;;;;4.75;3.20;;;22.10;63.90;;;;;;10349768;28;20045;-54
2022/07/05 10:06:32;;;;;;;6.63;3.47;;;22.20;65.90;;;;;;10376669;28;20057;-50
2022/07/05 10:11:37;;;;;;;5.18;3.75;;;22.20;65.40;;;;;;10385033;28;20516;-54
2022/07/05 10:16:38;;;;;;;7.72;3.67;;;22.20;65.10;;;;;;10386853;28;20112;-52
2022/07/05 10:21:40;;;;;;;4.53;3.25;;;22.20;64.10;;;;;;10382885;28;20487;-53
2022/07/05 10:26:41;;;;;;;6.72;3.53;;;22.20;64.00;;;;;;10379738;28;20477;-52
2022/07/05 10:31:44;;;;;;;7.15;3.28;;;22.20;63.70;;;;;;10384638;28;20083;-53
2022/07/05 10:36:44;;;;;;;5.60;3.58;;;22.20;63.70;;;;;;10374156;28;20065;-55
2022/07/05 10:41:46;;;;;;;4.40;2.72;;;22.20;62.00;;;;;;10382920;28;20038;-53
2022/07/05 10:46:47;;;;;;;3.47;2.25;;;22.20;61.70;;;;;;10377038;28;20022;-53
2022/07/05 10:51:49;;;;;;;5.70;2.80;;;22.20;61.60;;;;;;10398325;28;20096;-52
2022/07/05 10:57:24;;;;;;;4.30;2.60;;;22.20;62.50;;;;;;10381497;28;20038;-54
2022/07/05 11:02:24;;;;;;;7.28;2.83;;;22.20;62.10;;;;;;10369783;28;20081;-56
2022/07/05 11:08:00;;;;;;;6.07;3.25;;;22.20;61.40;;;;;;10386082;28;20105;-56
2022/07/05 11:13:43;;;;;;;4.82;2.38;;;22.30;62.90;;;;;;10395981;28;20125;-54
2022/07/05 11:18:44;;;;;;;2.75;1.75;;;22.30;61.40;;;;;;10391197;28;20022;-52
2022/07/05 11:23:45;;;;;;;5.97;2.33;;;22.30;63.10;;;;;;10389941;28;20034;-50
2022/07/05 11:28:47;;;;;;;4.75;2.55;;;22.30;62.20;;;;;;10395262;28;20032;-52
2022/07/05 11:33:50;;;;;;;3.53;2.40;;;22.30;61.40;;;;;;10386904;28;20041;-53
2022/07/05 11:39:12;;;;;;;4.35;2.05;;;22.40;61.40;;;;;;10384216;28;20095;-54
2022/07/05 11:44:14;;;;;;;2.78;1.70;;;22.40;61.30;;;;;;10378184;28;20464;-54
2022/07/05 11:49:23;;;;;;;2.83;2.08;;;22.30;61.30;;;;;;10422764;28;20029;-53
2022/07/05 11:54:33;;;;;;;2.75;1.63;;;22.30;61.30;;;;;;10398453;28;20027;-52
2022/07/05 11:59:35;;;;;;;4.07;2.22;;;22.40;61.20;;;;;;10403707;28;20053;-51
2022/07/05 12:04:36;;;;;;;2.47;1.75;;;22.30;60.80;;;;;;10388958;28;20029;-53
2022/07/05 12:14:57;;;;;;;3.35;1.80;;;22.40;60.60;;;;;;10393067;28;20041;-53
2022/07/05 12:19:57;;;;;;;6.57;2.45;;;22.40;60.60;;;;;;10388542;28;20044;-53
2022/07/05 12:25:00;;;;;;;8.07;2.83;;;22.40;60.60;;;;;;10393381;28;20098;-53
2022/07/05 12:30:03;;;;;;;5.35;2.20;;;22.40;60.00;;;;;;10387310;28;20033;-53
2022/07/05 12:35:04;;;;;;;6.13;2.25;;;22.40;59.70;;;;;;10379353;28;20122;-53
2022/07/05 12:40:08;;;;;;;4.60;2.20;;;22.40;59.50;;;;;;10381751;28;20080;-55
2022/07/05 12:45:15;;;;;;;4.15;1.60;;;22.30;59.30;;;;;;10384433;28;20033;-53
2022/07/05 12:50:16;;;;;;;7.25;2.53;;;22.40;58.40;;;;;;10380935;28;20440;-52
2022/07/05 13:00:36;;;;;;;10.57;2.88;;;22.40;58.70;;;;;;10383530;28;20433;-53
2022/07/05 13:05:36;;;;;;;9.93;3.13;;;22.40;58.40;;;;;;10385292;28;20037;-52
2022/07/05 13:10:46;;;;;;;13.45;2.67;;;22.30;57.70;;;;;;10388424;28;20129;-52
2022/07/05 13:15:47;;;;;;;15.38;3.45;;;22.30;57.40;;;;;;10385140;28;20116;-52
2022/07/05 13:20:49;;;;;;;7.13;2.30;;;22.30;57.50;;;;;;10376848;28;20056;-53
2022/07/05 13:25:50;;;;;;;9.23;2.30;;;22.30;57.50;;;;;;10369930;28;20033;-53
2022/07/05 13:30:51;;;;;;;4.72;1.98;;;22.40;57.70;;;;;;10381416;28;20379;-52
2022/07/05 13:35:51;;;;;;;9.52;2.63;;;22.30;57.80;;;;;;10367940;28;20050;-54
2022/07/05 13:40:52;;;;;;;6.80;1.88;;;22.30;58.10;;;;;;10369930;28;20045;-54
2022/07/05 13:45:53;;;;;;;6.55;1.90;;;22.30;58.10;;;;;;10379099;28;20032;-54
2022/07/05 13:50:54;;;;;;;6.60;2.38;;;22.30;58.80;;;;;;10388832;28;20382;-54
2022/07/05 13:55:54;;;;;;;7.97;2.28;;;22.30;58.30;;;;;;10378922;28;20108;-53
2022/07/05 14:00:55;;;;;;;6.82;2.42;;;22.30;58.30;;;;;;10379807;28;20070;-53
2022/07/05 14:05:57;;;;;;;3.20;1.63;;;22.40;58.40;;;;;;10370471;28;20029;-52
2022/07/05 14:10:58;;;;;;;3.70;1.67;;;22.30;58.30;;;;;;10373897;28;20038;-51
2022/07/05 14:15:59;;;;;;;5.47;1.55;;;22.30;58.30;;;;;;10365199;28;20041;-54
2022/07/05 14:20:59;;;;;;;5.10;1.55;;;22.30;58.50;;;;;;10389198;28;20038;-54
2022/07/05 14:26:02;;;;;;;5.38;1.20;;;22.30;58.70;;;;;;10407233;28;20022;-54
2022/07/05 14:31:02;;;;;;;4.70;1.40;;;22.30;58.50;;;;;;10381750;28;20033;-53
2022/07/05 14:36:04;;;;;;;3.78;1.20;;;22.30;58.50;;;;;;10403167;28;20053;-54
2022/07/05 14:41:05;;;;;;;3.30;1.27;;;22.30;58.70;;;;;;10395783;28;20401;-52
2022/07/05 14:46:07;;;;;;;2.45;1.40;;;22.30;58.80;;;;;;10386910;28;20029;-53
2022/07/05 14:51:08;;;;;;;15.18;5.35;;;22.30;58.30;;;;;;10384474;28;20092;-53
2022/07/05 14:56:09;;;;;;;7.57;2.20;;;22.50;61.10;;;;;;10385129;28;20840;-53
2022/07/05 15:01:10;;;;;;;4.60;2.00;;;22.60;59.10;;;;;;10387592;28;20596;-52
2022/07/05 15:06:12;;;;;;;12.95;3.13;;;22.60;59.40;;;;;;10396345;28;20084;-51
2022/07/05 15:11:13;;;;;;;19.52;3.40;;;22.50;59.70;;;;;;10396088;28;20042;-51
2022/07/05 15:16:14;;;;;;;21.95;4.28;;;22.50;59.90;;;;;;10397758;28;20030;-50
2022/07/05 15:21:14;;;;;;;31.63;4.90;;;22.50;59.00;;;;;;10397398;28;20437;-49
2022/07/05 15:26:15;;;;;;;38.58;6.78;;;22.40;59.00;;;;;;10392687;28;20168;-52
2022/07/05 15:31:16;;;;;;;37.13;6.32;;;22.50;58.40;;;;;;10374453;28;20034;-51
2022/07/05 15:36:17;;;;;;;25.55;9.20;;;22.50;58.80;;;;;;10375326;28;20050;-50
2022/07/05 15:41:18;;;;;;;30.02;6.15;;;22.50;61.00;;;;;;10387820;28;20113;-49
2022/07/05 15:46:18;;;;;;;21.98;6.55;;;22.50;59.20;;;;;;10387218;28;20442;-52
2022/07/05 15:51:20;;;;;;;26.55;6.43;;;22.50;59.50;;;;;;10389470;28;20082;-47
2022/07/05 15:56:21;;;;;;;28.67;6.82;;;22.60;62.80;;;;;;10388277;28;20045;-49
2022/07/05 16:01:21;;;;;;;29.90;5.45;;;22.70;61.50;;;;;;10390594;28;20053;-51
2022/07/05 16:06:22;;;;;;;21.98;4.65;;;22.70;61.10;;;;;;10380219;28;20160;-48
2022/07/05 16:11:23;;;;;;;15.73;4.35;;;22.70;60.80;;;;;;10383345;28;20119;-50
2022/07/05 16:16:24;;;;;;;17.02;3.92;;;22.70;61.10;;;;;;10377083;28;20034;-50
2022/07/05 16:21:24;;;;;;;15.85;3.60;;;22.70;60.70;;;;;;10395506;28;20049;-53
2022/07/05 16:26:26;;;;;;;22.40;4.82;;;22.60;60.70;;;;;;10379451;28;20029;-52
2022/07/05 16:31:28;;;;;;;23.58;4.68;;;22.60;60.80;;;;;;10389143;28;20574;-48
2022/07/05 16:36:28;;;;;;;13.02;4.28;;;22.60;61.00;;;;;;10395658;28;20141;-49
2022/07/05 16:41:29;;;;;;;20.25;4.57;;;22.70;60.60;;;;;;10373820;28;20473;-53
2022/07/05 16:46:32;;;;;;;14.30;3.70;;;22.60;60.60;;;;;;10388589;28;20036;-48
2022/07/05 16:51:32;;;;;;;21.23;4.88;;;22.60;59.40;;;;;;10388741;28;20515;-52
2022/07/05 16:56:33;;;;;;;12.50;2.92;;;22.50;59.20;;;;;;10376469;28;20034;-49
2022/07/05 17:01:34;;;;;;;14.38;2.97;;;22.50;59.70;;;;;;10377341;28;20061;-52
2022/07/05 17:06:34;;;;;;;10.52;4.18;;;22.40;59.70;;;;;;10385442;28;20021;-49
2022/07/05 17:11:35;;;;;;;11.18;3.05;;;22.40;59.80;;;;;;10386456;28;20095;-49
2022/07/05 17:16:36;;;;;;;13.30;3.75;;;22.40;59.80;;;;;;10369071;28;20034;-52
2022/07/05 17:21:37;;;;;;;10.70;3.38;;;22.40;59.70;;;;;;10369055;28;20481;-52
2022/07/05 17:26:38;;;;;;;10.43;3.20;;;22.50;59.60;;;;;;10369045;28;20034;-53
2022/07/05 17:31:39;;;;;;;6.50;2.55;;;22.40;59.60;;;;;;10384477;28;20034;-52
2022/07/05 17:36:40;;;;;;;9.50;2.70;;;22.40;59.70;;;;;;10379229;28;20592;-48
2022/07/05 17:41:41;;;;;;;4.60;2.38;;;22.40;59.70;;;;;;10378614;28;20037;-48
2022/07/05 17:46:41;;;;;;;6.78;2.75;;;22.40;59.70;;;;;;10406170;28;20139;-52
2022/07/05 17:51:45;;;;;;;6.97;1.90;;;22.40;59.50;;;;;;10400072;28;20481;-52
2022/07/05 17:56:46;;;;;;;5.53;2.22;;;22.40;59.60;;;;;;10391625;28;20025;-49
2022/07/05 18:01:47;;;;;;;3.53;1.92;;;22.40;59.40;;;;;;10381124;28;20038;-50
2022/07/05 18:06:48;;;;;;;12.98;2.40;;;22.40;59.30;;;;;;10377472;28;20108;-49
2022/07/05 18:11:48;;;;;;;6.95;2.05;;;22.40;59.50;;;;;;10371156;28;20048;-52
2022/07/05 18:16:49;;;;;;;6.82;2.05;;;22.40;59.50;;;;;;10383413;28;20504;-52
2022/07/05 18:21:50;;;;;;;8.60;2.63;;;22.40;59.30;;;;;;10384960;28;20109;-53
2022/07/05 18:26:51;;;;;;;9.45;1.98;;;22.40;59.70;;;;;;10391306;28;20808;-53
2022/07/05 18:31:52;;;;;;;4.57;1.77;;;22.40;59.70;;;;;;10384930;28;20060;-50
2022/07/05 18:36:52;;;;;;;3.03;1.38;;;22.40;59.20;;;;;;10373626;28;20049;-53
2022/07/05 18:41:53;;;;;;;6.72;1.85;;;22.40;58.60;;;;;;10386383;28;20584;-51
2022/07/05 18:46:54;;;;;;;2.80;0.80;;;22.40;57.90;;;;;;10377866;28;20113;-52
2022/07/05 18:51:55;;;;;;;3.33;1.10;;;22.40;56.90;;;;;;10388339;28;20039;-51
2022/07/05 18:56:56;;;;;;;2.20;1.08;;;22.40;56.90;;;;;;10375412;28;20026;-53
2022/07/05 19:01:56;;;;;;;3.15;1.17;;;22.40;56.60;;;;;;10393193;28;20037;-49
2022/07/05 19:17:36;;;;;;;1.77;1.00;;;22.40;56.50;;;;;;10374772;28;20034;-52
2022/07/05 19:22:39;;;;;;;3.75;1.00;;;22.30;56.40;;;;;;10384906;28;20033;-50
2022/07/05 19:27:39;;;;;;;2.75;1.00;;;22.30;56.40;;;;;;10394001;28;20033;-52
2022/07/05 19:32:40;;;;;;;2.38;1.27;;;22.30;56.20;;;;;;10400034;28;20100;-54
2022/07/05 19:37:41;;;;;;;3.22;1.10;;;22.30;56.20;;;;;;10385128;28;20041;-50
2022/07/05 19:42:41;;;;;;;2.83;0.95;;;22.30;56.00;;;;;;10395991;28;20037;-51
2022/07/05 19:47:42;;;;;;;2.35;1.27;;;22.30;56.00;;;;;;10388764;28;20030;-51
2022/07/05 19:52:43;;;;;;;2.25;1.23;;;22.30;56.20;;;;;;10392950;28;20076;-51
2022/07/05 19:57:44;;;;;;;3.47;1.35;;;22.30;56.20;;;;;;10383886;28;20564;-52
2022/07/05 20:02:45;;;;;;;4.35;2.20;;;22.30;56.50;;;;;;10389913;28;20461;-52
2022/07/05 20:07:45;;;;;;;1.70;1.17;;;22.30;56.30;;;;;;10389649;28;20076;-52
2022/07/05 20:12:46;;;;;;;2.53;1.27;;;22.30;56.20;;;;;;10390300;28;20027;-51
2022/07/05 20:17:47;;;;;;;3.45;1.35;;;22.30;56.10;;;;;;10386014;28;20030;-52
2022/07/05 20:22:48;;;;;;;2.78;1.35;;;22.30;56.10;;;;;;10400521;28;20044;-51
2022/07/05 20:27:48;;;;;;;2.10;1.27;;;22.30;56.20;;;;;;10389939;28;20924;-49
2022/07/05 20:32:49;;;;;;;3.17;2.38;;;22.20;56.20;;;;;;10384002;28;20034;-52
2022/07/05 20:37:50;;;;;;;5.03;1.38;;;22.30;56.30;;;;;;10388879;28;20037;-54
2022/07/05 20:42:50;;;;;;;2.42;1.48;;;22.30;56.20;;;;;;10409393;28;20100;-51
2022/07/05 20:47:51;;;;;;;2.05;1.23;;;22.20;56.30;;;;;;10369636;28;20022;-53
2022/07/05 20:52:52;;;;;;;2.17;1.50;;;22.30;56.30;;;;;;10388697;28;20029;-52
2022/07/05 20:57:53;;;;;;;4.38;1.27;;;22.20;56.20;;;;;;10387520;28;20052;-52
2022/07/05 21:02:53;;;;;;;2.10;1.38;;;22.20;56.20;;;;;;10367598;28;20560;-51
2022/07/05 21:07:54;;;;;;;3.80;1.13;;;22.30;56.20;;;;;;10376830;28;20120;-53
2022/07/05 21:12:55;;;;;;;2.75;1.20;;;22.20;56.20;;;;;;10410309;28;20026;-54
2022/07/05 21:17:56;;;;;;;1.42;0.90;;;22.20;56.10;;;;;;10408503;28;20025;-49
2022/07/05 21:22:56;;;;;;;2.10;1.38;;;22.20;56.10;;;;;;10386126;28;20034;-53
2022/07/05 21:27:57;;;;;;;3.10;1.70;;;22.20;56.10;;;;;;10399532;28;20095;-50
2022/07/05 21:32:58;;;;;;;1.30;1.00;;;22.20;56.00;;;;;;10403691;28;20100;-55
2022/07/05 21:37:58;;;;;;;2.33;1.15;;;22.20;56.80;;;;;;10382599;28;20409;-53
2022/07/05 21:42:59;;;;;;;2.55;1.02;;;22.20;56.20;;;;;;10371756;28;20037;-54
2022/07/05 21:48:00;;;;;;;1.80;1.23;;;22.20;56.10;;;;;;10368595;28;20121;-54
2022/07/05 21:53:01;;;;;;;1.45;1.08;;;22.20;56.10;;;;;;10367688;28;20033;-54
2022/07/05 21:58:01;;;;;;;2.88;1.88;;;22.20;56.00;;;;;;10368343;28;20048;-52
2022/07/05 22:08:21;;;;;;;;;;;22.20;56.00;;;;;;10368405;28;20041;-51
2022/07/05 22:13:22;;;;;;;1.88;1.02;;;22.20;55.80;;;;;;10377765;28;19916;-53
2022/07/05 22:18:23;;;;;;;1.77;1.10;;;22.20;56.10;;;;;;10366225;28;20121;-48
2022/07/05 22:23:23;;;;;;;4.80;1.20;;;22.10;56.20;;;;;;10367441;28;20108;-52
2022/07/05 22:28:24;;;;;;;1.42;0.90;;;22.10;56.00;;;;;;10380706;28;20362;-53
2022/07/05 22:33:25;;;;;;;2.65;1.20;;;22.10;56.00;;;;;;10365828;28;20040;-52
2022/07/05 22:38:26;;;;;;;2.38;1.40;;;22.10;56.00;;;;;;10370956;28;20553;-51
2022/07/05 22:43:26;;;;;;;1.77;1.10;;;22.10;56.00;;;;;;10390962;28;20485;-50
2022/07/05 22:48:27;;;;;;;1.63;1.10;;;22.10;56.10;;;;;;10399278;28;20044;-53
2022/07/05 22:53:28;;;;;;;3.50;1.10;;;22.10;55.80;;;;;;10399008;28;20713;-52
2022/07/05 22:58:29;;;;;;;3.38;1.20;;;22.10;56.20;;;;;;10394449;28;20278;-53
2022/07/05 23:03:29;;;;;;;2.30;1.20;;;22.10;56.10;;;;;;10374334;28;20792;-52
2022/07/05 23:08:30;;;;;;;2.30;0.90;;;22.10;56.10;;;;;;10391649;28;20046;-51
2022/07/05 23:13:31;;;;;;;1.25;0.85;;;22.10;55.90;;;;;;10374088;28;20026;-54
2022/07/05 23:18:31;;;;;;;2.03;1.10;;;22.10;55.90;;;;;;10374108;28;20041;-53
2022/07/05 23:23:32;;;;;;;1.33;0.80;;;22.10;55.90;;;;;;10373691;28;20465;-53
2022/07/05 23:28:33;;;;;;;1.88;1.15;;;22.10;56.00;;;;;;10386910;28;20060;-52
2022/07/05 23:33:33;;;;;;;1.95;1.00;;;22.00;55.80;;;;;;10404682;28;20064;-52
2022/07/05 23:38:34;;;;;;;1.50;1.10;;;22.10;55.90;;;;;;10394875;28;20432;-54
2022/07/05 23:43:35;;;;;;;1.42;1.10;;;22.00;55.80;;;;;;10376648;28;20509;-54
2022/07/05 23:48:35;;;;;;;1.30;0.70;;;22.10;55.90;;;;;;10397734;28;20037;-52
2022/07/05 23:53:36;;;;;;;2.78;1.15;;;22.00;55.80;;;;;;10382371;28;20500;-52
2022/07/05 23:58:37;;;;;;;1.42;0.95;;;22.00;55.70;;;;;;10397011;28;20048;-51
